createdAt,value
2019-04-25T00:02:44.793Z,11.80
2019-04-25T00:05:16.646Z,11.80
2019-04-25T00:07:47.131Z,12.10
2019-04-25T00:10:17.386Z,11.80
2019-04-25T00:12:48.074Z,11.30
2019-04-25T00:15:18.591Z,11.70
2019-04-25T00:17:48.597Z,11.70
2019-04-25T00:20:18.905Z,11.70
2019-04-25T00:22:57.339Z,11.70
2019-04-25T00:25:52.786Z,11.70
2019-04-25T00:28:22.961Z,11.30
2019-04-25T00:30:53.126Z,11.70
2019-04-25T00:33:23.153Z,11.80
2019-04-25T00:35:53.165Z,11.80
2019-04-25T00:38:24.811Z,11.90
2019-04-25T00:40:54.684Z,11.80
2019-04-25T00:43:24.922Z,11.90
2019-04-25T00:45:54.838Z,12.20
2019-04-25T00:48:24.733Z,11.90
2019-04-25T00:50:54.814Z,11.70
2019-04-25T00:53:24.721Z,11.80
2019-04-25T00:55:54.584Z,12.20
2019-04-25T00:58:39.169Z,11.70
2019-04-25T01:01:33.274Z,11.60
2019-04-25T01:04:03.191Z,11.60
2019-04-25T01:06:33.313Z,11.60
2019-04-25T01:09:03.460Z,11.50
2019-04-25T01:11:33.390Z,11.50
2019-04-25T01:14:03.313Z,11.50
2019-04-25T01:16:33.242Z,11.50
2019-04-25T01:19:03.519Z,11.40
2019-04-25T01:21:33.991Z,11.50
2019-04-25T01:24:04.271Z,11.40
2019-04-25T01:26:34.573Z,11.70
2019-04-25T01:29:05.172Z,11.40
2019-04-25T01:31:35.222Z,11.40
2019-04-25T01:34:07.674Z,11.30
2019-04-25T01:39:36.805Z,11.30
2019-04-25T01:42:35.097Z,11.30
2019-04-25T01:47:35.030Z,11.20
2019-04-25T01:50:05.654Z,11.10
2019-04-25T01:52:35.718Z,11.20
2019-04-25T01:55:11.019Z,11.10
2019-04-25T01:57:40.990Z,11.20
2019-04-25T02:00:13.962Z,11.00
2019-04-25T02:02:44.019Z,11.10
2019-04-25T02:05:14.266Z,11.20
2019-04-25T02:07:44.449Z,11.10
2019-04-25T02:10:14.810Z,11.00
2019-04-25T02:12:50.164Z,11.10
2019-04-25T02:15:23.451Z,11.00
2019-04-25T02:17:54.161Z,10.90
2019-04-25T02:20:24.926Z,11.00
2019-04-25T02:22:55.653Z,11.00
2019-04-25T02:25:26.587Z,10.80
2019-04-25T02:27:59.915Z,11.00
2019-04-25T02:30:28.135Z,11.10
2019-04-25T02:33:01.823Z,10.90
2019-04-25T02:35:29.761Z,11.00
2019-04-25T02:38:02.297Z,11.00
2019-04-25T02:40:31.235Z,10.90
2019-04-25T02:43:03.201Z,10.80
2019-04-25T02:45:50.355Z,10.90
2019-04-25T02:48:44.142Z,10.90
2019-04-25T02:51:29.236Z,10.90
2019-04-25T02:53:59.709Z,10.70
2019-04-25T02:56:34.308Z,10.70
2019-04-25T02:59:02.743Z,10.80
2019-04-25T03:01:34.258Z,10.80
2019-04-25T03:04:08.556Z,10.80
2019-04-25T03:06:36.003Z,10.70
2019-04-25T03:09:09.801Z,10.60
2019-04-25T03:11:40.230Z,10.70
2019-04-25T03:14:10.416Z,10.50
2019-04-25T03:16:40.523Z,10.40
2019-04-25T03:19:26.267Z,10.40
2019-04-25T03:21:58.640Z,10.40
2019-04-25T03:24:28.510Z,10.50
2019-04-25T03:26:58.590Z,10.40
2019-04-25T03:29:29.325Z,10.30
2019-04-25T03:32:01.958Z,10.30
2019-04-25T03:34:30.779Z,10.40
2019-04-25T03:37:00.941Z,10.20
2019-04-25T03:39:31.645Z,10.20
2019-04-25T03:42:02.203Z,10.20
2019-04-25T03:44:33.666Z,10.20
2019-04-25T03:47:06.145Z,10.20
2019-04-25T03:49:35.319Z,10.20
2019-04-25T03:52:05.587Z,10.20
2019-04-25T03:57:06.681Z,10.20
2019-04-25T03:59:37.744Z,10.20
2019-04-25T04:02:08.167Z,10.10
2019-04-25T04:04:39.109Z,10.20
2019-04-25T04:07:10.898Z,10.20
2019-04-25T04:09:41.216Z,10.10
2019-04-25T04:12:11.074Z,10.10
2019-04-25T04:14:41.034Z,10.10
2019-04-25T04:17:16.650Z,10.10
2019-04-25T04:20:15.140Z,10.30
2019-04-25T04:22:55.233Z,10.20
2019-04-25T04:25:25.369Z,10.20
2019-04-25T04:27:55.546Z,10.20
2019-04-25T04:30:25.481Z,10.30
2019-04-25T04:32:55.406Z,10.80
2019-04-25T04:35:25.292Z,10.20
2019-04-25T04:37:55.204Z,9.90
2019-04-25T04:40:25.149Z,10.20
2019-04-25T04:42:55.053Z,10.30
2019-04-25T04:45:24.897Z,10.20
2019-04-25T04:47:54.766Z,10.20
2019-04-25T04:50:25.348Z,10.20
2019-04-25T04:52:55.381Z,10.20
2019-04-25T04:55:25.361Z,10.20
2019-04-25T04:57:55.567Z,10.30
2019-04-25T05:00:26.621Z,10.40
2019-04-25T05:03:04.482Z,10.40
2019-04-25T05:05:58.966Z,10.60
2019-04-25T05:08:31.558Z,10.70
2019-04-25T05:11:01.474Z,10.90
2019-04-25T05:13:31.300Z,10.90
2019-04-25T05:16:01.174Z,10.90
2019-04-25T05:18:36.975Z,11.00
2019-04-25T05:21:04.173Z,11.10
2019-04-25T05:23:34.445Z,11.90
2019-04-25T05:26:04.665Z,11.30
2019-04-25T05:28:34.591Z,11.30
2019-04-25T05:31:17.234Z,11.40
2019-04-25T05:33:48.095Z,11.60
2019-04-25T05:36:18.526Z,11.80
2019-04-25T05:38:48.578Z,11.80
2019-04-25T05:41:36.417Z,12.10
2019-04-25T05:44:06.436Z,12.20
2019-04-25T05:46:36.757Z,12.20
2019-04-25T05:49:06.589Z,12.30
2019-04-25T05:51:36.510Z,12.50
2019-04-25T05:54:06.419Z,12.60
2019-04-25T05:56:36.606Z,12.70
2019-04-25T05:59:06.720Z,12.80
2019-04-25T06:01:36.618Z,12.90
2019-04-25T06:04:06.861Z,13.00
2019-04-25T06:06:36.990Z,13.10
2019-04-25T06:09:19.731Z,13.20
2019-04-25T06:11:57.055Z,13.30
2019-04-25T06:14:27.963Z,13.50
2019-04-25T06:17:01.690Z,13.70
2019-04-25T06:19:44.661Z,13.90
2019-04-25T06:22:19.971Z,13.90
2019-04-25T06:24:58.357Z,14.00
2019-04-25T06:27:35.229Z,14.20
2019-04-25T06:30:32.069Z,14.50
2019-04-25T06:33:03.331Z,15.40
2019-04-25T06:35:35.500Z,16.30
2019-04-25T06:38:06.023Z,17.40
2019-04-25T06:40:35.917Z,18.20
2019-04-25T06:43:05.846Z,18.50
2019-04-25T06:46:09.721Z,18.60
2019-04-25T06:48:47.029Z,17.70
2019-04-25T06:51:16.938Z,17.40
2019-04-25T06:53:46.865Z,18.40
2019-04-25T06:56:16.910Z,19.40
2019-04-25T06:58:46.825Z,20.80
2019-04-25T07:01:16.719Z,21.90
2019-04-25T07:03:46.725Z,22.40
2019-04-25T07:06:16.638Z,22.30
2019-04-25T07:08:46.553Z,22.30
2019-04-25T07:11:16.473Z,23.00
2019-04-25T07:13:46.471Z,22.70
2019-04-25T07:16:16.421Z,22.90
2019-04-25T07:21:15.492Z,22.70
2019-04-25T07:23:46.298Z,22.50
2019-04-25T07:26:39.503Z,22.50
2019-04-25T07:29:30.482Z,23.00
2019-04-25T07:32:24.227Z,23.20
2019-04-25T07:34:55.168Z,22.90
2019-04-25T07:37:26.050Z,22.50
2019-04-25T07:39:57.775Z,22.90
2019-04-25T07:42:27.882Z,23.40
2019-04-25T07:44:57.863Z,23.60
2019-04-25T07:47:29.038Z,24.40
2019-04-25T07:49:59.238Z,24.80
2019-04-25T07:52:33.555Z,24.50
2019-04-25T07:55:04.404Z,25.20
2019-04-25T08:00:08.919Z,25.60
2019-04-25T08:02:39.563Z,25.60
2019-04-25T08:05:16.146Z,25.60
2019-04-25T08:07:46.057Z,25.00
2019-04-25T08:12:47.509Z,23.00
2019-04-25T08:15:39.794Z,23.00
2019-04-25T08:18:10.396Z,22.50
2019-04-25T08:20:40.669Z,22.10
2019-04-25T08:23:11.296Z,22.80
2019-04-25T08:25:41.204Z,22.50
2019-04-25T08:28:11.495Z,22.30
2019-04-25T08:30:41.776Z,22.40
2019-04-25T08:33:13.769Z,21.80
2019-04-25T08:36:02.962Z,21.80
2019-04-25T08:38:15.508Z,21.90
2019-04-25T08:40:45.375Z,22.30
2019-04-25T08:43:15.332Z,22.40
2019-04-25T08:45:45.599Z,23.00
2019-04-25T08:48:15.532Z,22.90
2019-04-25T08:50:54.423Z,23.20
2019-04-25T08:53:27.240Z,23.60
2019-04-25T08:56:03.814Z,23.70
2019-04-25T08:59:03.993Z,23.90
2019-04-25T09:01:45.120Z,23.60
2019-04-25T09:04:20.455Z,23.50
2019-04-25T09:06:50.379Z,23.60
2019-04-25T09:09:20.316Z,23.70
2019-04-25T09:11:50.276Z,23.70
2019-04-25T09:14:20.343Z,23.80
2019-04-25T09:16:50.304Z,23.60
2019-04-25T09:19:20.262Z,23.50
2019-04-25T09:21:50.216Z,23.80
2019-04-25T09:24:20.164Z,24.20
2019-04-25T09:26:50.181Z,24.10
2019-04-25T09:29:20.213Z,24.30
2019-04-25T09:31:50.265Z,24.20
2019-04-25T09:34:20.177Z,23.90
2019-04-25T09:36:50.044Z,23.90
2019-04-25T09:39:36.811Z,24.00
2019-04-25T09:42:06.938Z,24.00
2019-04-25T09:44:46.657Z,24.10
2019-04-25T09:47:16.597Z,24.30
2019-04-25T09:49:48.296Z,24.20
2019-04-25T09:52:20.318Z,24.50
2019-04-25T09:55:15.174Z,24.50
2019-04-25T09:57:55.349Z,25.20
2019-04-25T10:00:38.087Z,25.80
2019-04-25T10:03:09.420Z,25.80
2019-04-25T10:05:40.344Z,25.80
2019-04-25T10:08:10.364Z,25.20
2019-04-25T10:10:40.578Z,25.20
2019-04-25T10:13:10.600Z,25.30
2019-04-25T10:15:47.942Z,25.30
2019-04-25T10:18:17.953Z,25.10
2019-04-25T10:20:49.425Z,25.10
2019-04-25T10:23:19.445Z,25.30
2019-04-25T10:25:49.751Z,25.20
2019-04-25T10:28:20.044Z,25.90
2019-04-25T10:30:49.961Z,26.20
2019-04-25T10:33:24.186Z,26.80
2019-04-25T10:35:59.482Z,26.70
2019-04-25T10:38:27.370Z,26.70
2019-04-25T10:40:57.621Z,26.80
2019-04-25T10:43:27.557Z,25.90
2019-04-25T10:45:58.045Z,25.90
2019-04-25T10:48:27.983Z,25.70
2019-04-25T10:50:58.053Z,25.80
2019-04-25T10:53:28.037Z,26.00
2019-04-25T10:55:58.020Z,26.10
2019-04-25T10:58:27.962Z,25.80
2019-04-25T11:00:59.214Z,25.80
2019-04-25T11:03:42.670Z,25.90
2019-04-25T11:06:14.136Z,25.70
2019-04-25T11:08:44.930Z,25.90
2019-04-25T11:11:14.953Z,25.80
2019-04-25T11:13:45.298Z,25.70
2019-04-25T11:16:16.251Z,25.70
2019-04-25T11:18:46.407Z,26.50
2019-04-25T11:21:16.997Z,25.90
2019-04-25T11:23:47.689Z,26.20
2019-04-25T11:26:18.519Z,26.30
2019-04-25T11:28:48.808Z,26.10
2019-04-25T11:31:27.088Z,26.20
2019-04-25T11:33:57.045Z,26.50
2019-04-25T11:36:27.046Z,25.90
2019-04-25T11:39:15.965Z,26.00
2019-04-25T11:41:48.003Z,26.50
2019-04-25T11:44:17.483Z,26.50
2019-04-25T11:46:47.443Z,25.90
2019-04-25T11:49:17.563Z,26.50
2019-04-25T11:54:20.193Z,26.30
2019-04-25T11:56:50.790Z,26.90
2019-04-25T11:59:20.866Z,26.20
2019-04-25T12:01:50.804Z,26.30
2019-04-25T12:04:21.993Z,25.80
2019-04-25T12:06:51.948Z,25.80
2019-04-25T12:09:23.996Z,25.80
2019-04-25T12:11:54.571Z,25.70
2019-04-25T12:14:25.309Z,25.80
2019-04-25T12:16:56.286Z,25.80
2019-04-25T12:19:35.115Z,25.70
2019-04-25T12:21:58.299Z,25.30
2019-04-25T12:24:28.282Z,25.30
2019-04-25T12:26:58.152Z,25.20
2019-04-25T12:29:28.124Z,25.00
2019-04-25T12:31:58.634Z,25.00
2019-04-25T12:34:28.730Z,25.00
2019-04-25T12:36:58.646Z,24.80
2019-04-25T12:39:28.568Z,24.80
2019-04-25T12:41:58.518Z,24.60
2019-04-25T12:44:47.528Z,24.50
2019-04-25T12:47:21.110Z,24.90
2019-04-25T12:49:51.051Z,24.70
2019-04-25T12:52:20.981Z,25.00
2019-04-25T12:54:51.093Z,25.20
2019-04-25T12:57:24.044Z,25.10
2019-04-25T12:59:55.355Z,24.90
2019-04-25T13:02:25.570Z,24.90
2019-04-25T13:04:55.556Z,24.70
2019-04-25T13:07:25.559Z,24.80
2019-04-25T13:09:55.539Z,24.50
2019-04-25T13:12:25.454Z,24.90
2019-04-25T13:14:55.427Z,24.60
2019-04-25T13:17:25.395Z,24.30
2019-04-25T13:19:56.638Z,24.30
2019-04-25T13:22:26.854Z,24.40
2019-04-25T13:24:57.381Z,24.40
2019-04-25T13:27:52.385Z,24.50
2019-04-25T13:31:06.645Z,24.50
2019-04-25T13:33:43.314Z,24.20
2019-04-25T13:36:15.021Z,24.20
2019-04-25T13:38:45.322Z,24.30
2019-04-25T13:41:15.296Z,24.20
2019-04-25T13:43:45.238Z,24.20
2019-04-25T13:46:18.858Z,24.60
2019-04-25T13:48:46.785Z,24.90
2019-04-25T13:51:16.710Z,25.00
2019-04-25T13:53:46.661Z,24.90
2019-04-25T13:56:16.561Z,25.00
2019-04-25T13:58:46.405Z,24.60
2019-04-25T14:01:18.170Z,24.70
2019-04-25T14:03:48.373Z,24.50
2019-04-25T14:06:18.487Z,24.40
2019-04-25T14:08:48.388Z,24.20
2019-04-25T14:11:18.541Z,24.10
2019-04-25T14:13:48.453Z,24.10
2019-04-25T14:16:46.456Z,24.10
2019-04-25T14:19:38.162Z,23.90
2019-04-25T14:22:08.065Z,24.10
2019-04-25T14:24:37.937Z,24.10
2019-04-25T14:27:09.330Z,23.90
2019-04-25T14:29:39.206Z,23.80
2019-04-25T14:32:10.673Z,24.20
2019-04-25T14:34:40.553Z,24.20
2019-04-25T14:37:10.502Z,24.40
2019-04-25T14:39:40.742Z,25.30
2019-04-25T14:42:10.610Z,25.70
2019-04-25T14:44:40.857Z,25.00
2019-04-25T14:47:10.841Z,24.90
2019-04-25T14:49:40.790Z,24.60
2019-04-25T14:52:10.746Z,24.30
2019-04-25T14:54:55.574Z,24.20
2019-04-25T14:57:27.604Z,24.10
2019-04-25T14:59:57.521Z,24.50
2019-04-25T15:02:29.975Z,24.40
2019-04-25T15:04:59.934Z,24.50
2019-04-25T15:07:30.073Z,24.60
2019-04-25T15:10:00.025Z,24.60
2019-04-25T15:12:30.218Z,24.80
2019-04-25T15:15:00.374Z,25.80
2019-04-25T15:17:38.294Z,26.70
2019-04-25T15:20:01.810Z,27.00
2019-04-25T15:25:01.161Z,26.50
2019-04-25T15:27:31.012Z,26.60
2019-04-25T15:30:01.056Z,26.50
2019-04-25T15:32:34.791Z,26.60
2019-04-25T15:35:05.548Z,26.50
2019-04-25T15:37:43.880Z,26.50
2019-04-25T15:40:41.069Z,26.40
2019-04-25T15:43:28.794Z,26.50
2019-04-25T15:46:13.415Z,26.60
2019-04-25T15:48:43.361Z,26.70
2019-04-25T15:51:13.401Z,27.00
2019-04-25T15:53:43.311Z,27.40
2019-04-25T15:56:13.373Z,27.10
2019-04-25T15:58:43.330Z,26.80
2019-04-25T16:03:42.753Z,26.80
2019-04-25T16:06:12.874Z,26.60
2019-04-25T16:08:42.933Z,26.80
2019-04-25T16:11:12.805Z,26.70
2019-04-25T16:13:42.660Z,26.30
2019-04-25T16:16:12.735Z,26.40
2019-04-25T16:18:42.829Z,26.30
2019-04-25T16:21:12.941Z,25.90
2019-04-25T16:26:13.017Z,25.10
2019-04-25T16:28:42.962Z,25.00
2019-04-25T16:31:15.907Z,24.70
2019-04-25T16:33:45.989Z,24.60
2019-04-25T16:36:15.938Z,24.50
2019-04-25T16:38:45.987Z,24.40
2019-04-25T16:41:17.210Z,24.40
2019-04-25T16:43:50.238Z,24.10
2019-04-25T16:46:21.089Z,24.10
2019-04-25T16:48:51.083Z,23.80
2019-04-25T16:51:21.065Z,23.90
2019-04-25T16:53:50.982Z,23.80
2019-04-25T16:56:20.906Z,23.20
2019-04-25T16:58:50.854Z,22.80
2019-04-25T17:01:21.320Z,23.30
2019-04-25T17:03:51.202Z,23.40
2019-04-25T17:08:50.231Z,23.10
2019-04-25T17:11:20.130Z,23.00
2019-04-25T17:14:16.475Z,22.90
2019-04-25T17:16:55.074Z,22.90
2019-04-25T17:19:36.748Z,22.60
2019-04-25T17:22:06.868Z,22.60
2019-04-25T17:24:36.815Z,22.50
2019-04-25T17:27:06.721Z,22.10
2019-04-25T17:29:36.692Z,22.40
2019-04-25T17:32:25.593Z,22.40
2019-04-25T17:35:13.182Z,22.30
2019-04-25T17:37:48.029Z,22.10
2019-04-25T17:40:21.189Z,22.20
2019-04-25T17:42:51.162Z,22.30
2019-04-25T17:45:25.600Z,22.00
2019-04-25T17:47:57.026Z,21.80
2019-04-25T17:50:26.945Z,21.90
2019-04-25T17:52:57.165Z,21.80
2019-04-25T17:55:27.042Z,21.80
2019-04-25T17:57:57.354Z,21.70
2019-04-25T18:00:41.993Z,21.60
2019-04-25T18:03:12.984Z,21.60
2019-04-25T18:05:43.979Z,21.80
2019-04-25T18:08:14.046Z,21.50
2019-04-25T18:16:02.262Z,21.20
2019-04-25T18:21:29.259Z,21.20
2019-04-25T18:24:35.225Z,21.00
2019-04-25T18:29:43.719Z,21.00
2019-04-25T18:32:13.793Z,21.00
2019-04-25T18:34:58.473Z,21.00
2019-04-25T18:38:03.380Z,20.90
2019-04-25T18:40:51.374Z,20.90
2019-04-25T18:43:28.381Z,20.80
2019-04-25T18:46:03.512Z,20.80
2019-04-25T18:51:02.670Z,20.60
2019-04-25T18:56:41.087Z,20.60
2019-04-25T19:02:08.914Z,20.40
2019-04-25T19:05:00.647Z,20.50
2019-04-25T19:07:30.846Z,20.40
2019-04-25T19:10:00.813Z,20.30
2019-04-25T19:12:30.860Z,20.30
2019-04-25T19:15:00.865Z,20.20
2019-04-25T19:17:30.817Z,20.30
2019-04-25T19:20:00.765Z,20.30
2019-04-25T19:25:00.166Z,19.90
2019-04-25T19:32:28.779Z,20.00
2019-04-25T19:34:58.862Z,20.00
2019-04-25T19:37:28.765Z,20.00
2019-04-25T19:40:21.921Z,20.00
2019-04-25T19:42:55.058Z,19.90
2019-04-25T19:45:25.014Z,20.00
2019-04-25T19:47:54.937Z,19.90
2019-04-25T19:50:24.874Z,19.80
2019-04-25T19:52:55.137Z,19.80
2019-04-25T19:55:25.425Z,19.80
2019-04-25T19:57:55.773Z,19.80
2019-04-25T20:00:25.660Z,19.80
2019-04-25T20:03:10.406Z,19.80
2019-04-25T20:06:08.618Z,19.80
2019-04-25T20:08:47.281Z,19.70
2019-04-25T20:11:24.610Z,19.70
2019-04-25T20:13:54.523Z,19.60
2019-04-25T20:16:24.458Z,19.60
2019-04-25T20:18:54.405Z,19.60
2019-04-25T20:21:24.441Z,19.60
2019-04-25T20:23:54.477Z,19.50
2019-04-25T20:26:24.414Z,19.40
2019-04-25T20:28:55.373Z,19.40
2019-04-25T20:31:25.386Z,19.30
2019-04-25T20:34:05.254Z,19.30
2019-04-25T20:38:57.862Z,19.30
2019-04-25T20:41:27.858Z,19.20
2019-04-25T20:43:58.013Z,19.20
2019-04-25T20:46:28.050Z,19.20
2019-04-25T20:48:58.026Z,19.00
2019-04-25T20:51:27.965Z,19.10
2019-04-25T20:53:58.002Z,19.00
2019-04-25T20:56:28.252Z,19.00
2019-04-25T20:58:58.153Z,19.10
2019-04-25T21:01:28.243Z,19.00
2019-04-25T21:03:58.358Z,18.90
2019-04-25T21:06:33.226Z,19.00
2019-04-25T21:09:03.073Z,18.60
2019-04-25T21:11:33.005Z,18.80
2019-04-25T21:14:20.565Z,18.80
2019-04-25T21:16:58.599Z,18.70
2019-04-25T21:19:30.793Z,18.70
2019-04-25T21:22:01.120Z,18.60
2019-04-25T21:24:31.246Z,18.60
2019-04-25T21:29:30.965Z,18.70
2019-04-25T21:32:01.020Z,18.70
2019-04-25T21:34:31.338Z,18.60
2019-04-25T21:37:02.268Z,18.60
2019-04-25T21:39:40.094Z,18.50
2019-04-25T21:42:17.372Z,18.50
2019-04-25T21:44:47.614Z,18.40
2019-04-25T21:47:19.894Z,18.40
2019-04-25T21:49:50.173Z,18.40
2019-04-25T21:52:20.421Z,18.50
2019-04-25T21:54:50.654Z,18.50
2019-04-25T21:57:20.914Z,18.40
2019-04-25T22:00:00.364Z,18.40
2019-04-25T22:02:22.845Z,18.30
2019-04-25T22:04:54.141Z,18.70
2019-04-25T22:07:24.645Z,18.30
2019-04-25T22:09:55.589Z,18.40
2019-04-25T22:12:25.961Z,18.30
2019-04-25T22:14:55.928Z,18.40
2019-04-25T22:17:25.917Z,18.40
2019-04-25T22:19:56.770Z,18.40
2019-04-25T22:22:28.958Z,18.40
2019-04-25T22:24:58.909Z,18.10
2019-04-25T22:27:32.985Z,18.80
2019-04-25T22:30:03.716Z,18.30
2019-04-25T22:32:46.609Z,18.20
2019-04-25T22:35:24.449Z,18.20
2019-04-25T22:37:54.558Z,18.10
2019-04-25T22:40:25.971Z,18.20
2019-04-25T22:42:55.894Z,18.10
2019-04-25T22:45:26.901Z,18.10
2019-04-25T22:47:57.039Z,18.00
2019-04-25T22:50:27.213Z,18.00
2019-04-25T22:52:57.169Z,18.00
2019-04-25T22:55:27.200Z,18.10
2019-04-25T22:57:57.148Z,17.90
2019-04-25T23:00:32.443Z,17.80
2019-04-25T23:03:07.933Z,17.80
2019-04-25T23:05:56.802Z,17.70
2019-04-25T23:08:27.318Z,17.70
2019-04-25T23:10:57.226Z,17.60
2019-04-25T23:13:27.179Z,17.80
2019-04-25T23:15:57.122Z,17.40
2019-04-25T23:18:27.506Z,17.50
2019-04-25T23:20:57.493Z,17.50
2019-04-25T23:23:27.722Z,17.40
2019-04-25T23:26:19.322Z,17.40
2019-04-25T23:28:50.261Z,17.30
2019-04-25T23:31:24.450Z,17.40
2019-04-25T23:33:54.598Z,17.30
2019-04-25T23:36:24.509Z,17.30
2019-04-25T23:38:54.541Z,17.40
2019-04-25T23:41:24.709Z,17.50
2019-04-25T23:43:54.646Z,17.30
2019-04-25T23:46:24.759Z,17.40
2019-04-25T23:48:54.731Z,17.30
2019-04-25T23:51:24.630Z,17.30
2019-04-25T23:53:54.875Z,16.80
2019-04-25T23:56:24.777Z,17.10
2019-04-25T23:58:54.969Z,17.10
